sensor_id;sensor_type;location;lat;lon;timestamp;P1;durP1;ratioP1;P2;durP2;ratioP2
57025;SDS011;43961;52.940;6.834;2023-02-24T00:00:03;13.52;;;4.80;;
57025;SDS011;43961;52.940;6.834;2023-02-24T00:02:56;10.45;;;4.55;;
57025;SDS011;43961;52.940;6.834;2023-02-24T00:05:31;16.75;;;5.15;;
57025;SDS011;43961;52.940;6.834;2023-02-24T00:07:58;11.13;;;4.95;;
57025;SDS011;43961;52.940;6.834;2023-02-24T00:10:23;10.98;;;3.95;;
57025;SDS011;43961;52.940;6.834;2023-02-24T00:12:49;10.85;;;3.67;;
57025;SDS011;43961;52.940;6.834;2023-02-24T00:15:18;13.00;;;4.93;;
57025;SDS011;43961;52.940;6.834;2023-02-24T00:17:44;8.98;;;4.43;;
57025;SDS011;43961;52.940;6.834;2023-02-24T00:20:11;9.80;;;3.88;;
57025;SDS011;43961;52.940;6.834;2023-02-24T00:22:40;16.35;;;4.45;;
57025;SDS011;43961;52.940;6.834;2023-02-24T00:25:07;9.15;;;4.13;;
57025;SDS011;43961;52.940;6.834;2023-02-24T00:27:33;10.02;;;4.32;;
57025;SDS011;43961;52.940;6.834;2023-02-24T00:29:59;19.77;;;4.55;;
57025;SDS011;43961;52.940;6.834;2023-02-24T00:32:26;11.05;;;4.00;;
57025;SDS011;43961;52.940;6.834;2023-02-24T00:34:51;7.30;;;3.90;;
57025;SDS011;43961;52.940;6.834;2023-02-24T00:37:17;18.20;;;5.03;;
57025;SDS011;43961;52.940;6.834;2023-02-24T00:39:48;6.00;;;3.95;;
57025;SDS011;43961;52.940;6.834;2023-02-24T00:42:14;18.27;;;3.88;;
57025;SDS011;43961;52.940;6.834;2023-02-24T00:44:44;9.75;;;4.13;;
57025;SDS011;43961;52.940;6.834;2023-02-24T00:47:11;19.55;;;4.63;;
57025;SDS011;43961;52.940;6.834;2023-02-24T00:49:38;10.90;;;4.88;;
57025;SDS011;43961;52.940;6.834;2023-02-24T00:52:08;6.30;;;3.53;;
57025;SDS011;43961;52.940;6.834;2023-02-24T00:54:39;14.10;;;4.35;;
57025;SDS011;43961;52.940;6.834;2023-02-24T00:57:06;8.90;;;3.92;;
57025;SDS011;43961;52.940;6.834;2023-02-24T14:01:08;3.83;;;1.80;;
57025;SDS011;43961;52.940;6.834;2023-02-24T14:03:35;3.63;;;2.13;;
57025;SDS011;43961;52.940;6.834;2023-02-24T14:06:04;3.67;;;1.42;;
57025;SDS011;43961;52.940;6.834;2023-02-24T14:08:42;3.50;;;1.63;;
57025;SDS011;43961;52.940;6.834;2023-02-24T14:11:15;5.53;;;1.67;;
57025;SDS011;43961;52.940;6.834;2023-02-24T14:13:47;4.25;;;1.70;;
57025;SDS011;43961;52.940;6.834;2023-02-24T14:16:16;7.07;;;2.08;;
57025;SDS011;43961;52.940;6.834;2023-02-24T14:18:55;17.30;;;2.00;;
57025;SDS011;43961;52.940;6.834;2023-02-24T14:21:23;5.95;;;1.98;;
57025;SDS011;43961;52.940;6.834;2023-02-24T14:26:19;13.73;;;7.35;;
57025;SDS011;43961;52.940;6.834;2023-02-24T14:28:45;17.38;;;11.45;;
57025;SDS011;43961;52.940;6.834;2023-02-24T14:31:21;26.13;;;20.27;;
57025;SDS011;43961;52.940;6.834;2023-02-24T14:33:52;9.77;;;6.63;;
57025;SDS011;43961;52.940;6.834;2023-02-24T14:36:22;4.28;;;1.55;;
57025;SDS011;43961;52.940;6.834;2023-02-24T14:38:58;2.17;;;1.15;;
57025;SDS011;43961;52.940;6.834;2023-02-24T14:41:24;4.43;;;1.23;;
57025;SDS011;43961;52.940;6.834;2023-02-24T14:43:54;10.07;;;1.67;;
57025;SDS011;43961;52.940;6.834;2023-02-24T14:46:23;3.75;;;1.65;;
57025;SDS011;43961;52.940;6.834;2023-02-24T14:48:54;9.55;;;1.55;;
57025;SDS011;43961;52.940;6.834;2023-02-24T14:51:32;9.32;;;1.73;;
57025;SDS011;43961;52.940;6.834;2023-02-24T14:54:00;3.67;;;2.08;;
57025;SDS011;43961;52.940;6.834;2023-02-24T14:56:31;10.00;;;3.42;;
57025;SDS011;43961;52.940;6.834;2023-02-24T14:59:01;7.53;;;2.80;;
57025;SDS011;43961;52.940;6.834;2023-02-24T15:01:49;10.90;;;3.47;;
57025;SDS011;43961;52.940;6.834;2023-02-24T15:06:59;20.17;;;3.00;;
57025;SDS011;43961;52.940;6.834;2023-02-24T15:09:28;17.17;;;3.85;;
57025;SDS011;43961;52.940;6.834;2023-02-24T15:17:29;17.27;;;4.28;;
57025;SDS011;43961;52.940;6.834;2023-02-24T15:19:56;9.15;;;3.53;;
57025;SDS011;43961;52.940;6.834;2023-02-24T15:22:26;13.93;;;3.55;;
57025;SDS011;43961;52.940;6.834;2023-02-24T15:24:53;15.07;;;4.32;;
57025;SDS011;43961;52.940;6.834;2023-02-24T15:27:31;16.60;;;4.15;;
57025;SDS011;43961;52.940;6.834;2023-02-24T15:29:59;23.23;;;4.07;;
57025;SDS011;43961;52.940;6.834;2023-02-24T15:32:28;8.25;;;2.20;;
57025;SDS011;43961;52.940;6.834;2023-02-24T15:34:55;16.35;;;3.15;;
57025;SDS011;43961;52.940;6.834;2023-02-24T15:37:22;12.25;;;4.35;;
57025;SDS011;43961;52.940;6.834;2023-02-24T15:39:51;17.38;;;4.35;;
57025;SDS011;43961;52.940;6.834;2023-02-24T15:42:36;13.93;;;4.45;;
57025;SDS011;43961;52.940;6.834;2023-02-24T15:45:19;15.02;;;4.55;;
57025;SDS011;43961;52.940;6.834;2023-02-24T15:47:59;19.17;;;5.30;;
57025;SDS011;43961;52.940;6.834;2023-02-24T15:50:26;26.52;;;5.75;;
57025;SDS011;43961;52.940;6.834;2023-02-24T15:52:54;22.40;;;6.07;;
57025;SDS011;43961;52.940;6.834;2023-02-24T15:55:22;27.88;;;5.63;;
57025;SDS011;43961;52.940;6.834;2023-02-24T15:58:00;16.23;;;5.07;;
57025;SDS011;43961;52.940;6.834;2023-02-24T16:00:27;14.53;;;4.17;;
57025;SDS011;43961;52.940;6.834;2023-02-24T16:02:53;14.50;;;3.97;;
57025;SDS011;43961;52.940;6.834;2023-02-24T16:05:18;20.15;;;4.22;;
57025;SDS011;43961;52.940;6.834;2023-02-24T16:07:45;29.40;;;5.22;;
57025;SDS011;43961;52.940;6.834;2023-02-24T16:10:19;18.00;;;4.75;;
57025;SDS011;43961;52.940;6.834;2023-02-24T16:12:49;19.85;;;3.80;;
57025;SDS011;43961;52.940;6.834;2023-02-24T16:15:21;26.50;;;4.80;;
57025;SDS011;43961;52.940;6.834;2023-02-24T16:17:52;13.32;;;4.10;;
57025;SDS011;43961;52.940;6.834;2023-02-24T16:20:26;20.95;;;4.93;;
57025;SDS011;43961;52.940;6.834;2023-02-24T16:23:03;14.48;;;4.95;;
57025;SDS011;43961;52.940;6.834;2023-02-24T16:25:31;23.75;;;5.60;;
57025;SDS011;43961;52.940;6.834;2023-02-24T16:28:00;17.63;;;5.50;;
57025;SDS011;43961;52.940;6.834;2023-02-24T16:30:27;20.25;;;5.40;;
57025;SDS011;43961;52.940;6.834;2023-02-24T16:32:57;20.67;;;4.30;;
57025;SDS011;43961;52.940;6.834;2023-02-24T16:35:25;21.38;;;5.50;;
57025;SDS011;43961;52.940;6.834;2023-02-24T16:37:51;17.55;;;5.05;;
57025;SDS011;43961;52.940;6.834;2023-02-24T16:42:50;21.55;;;4.80;;
57025;SDS011;43961;52.940;6.834;2023-02-24T16:45:17;19.42;;;4.40;;
57025;SDS011;43961;52.940;6.834;2023-02-24T16:47:48;12.65;;;4.57;;
57025;SDS011;43961;52.940;6.834;2023-02-24T16:50:18;21.42;;;5.03;;
57025;SDS011;43961;52.940;6.834;2023-02-24T16:52:46;13.88;;;3.80;;
57025;SDS011;43961;52.940;6.834;2023-02-24T16:55:13;15.48;;;4.45;;
57025;SDS011;43961;52.940;6.834;2023-02-24T16:57:39;16.77;;;4.28;;
57025;SDS011;43961;52.940;6.834;2023-02-24T17:00:05;16.13;;;4.65;;
57025;SDS011;43961;52.940;6.834;2023-02-24T17:02:32;15.70;;;4.35;;
57025;SDS011;43961;52.940;6.834;2023-02-24T17:04:57;23.08;;;5.20;;
57025;SDS011;43961;52.940;6.834;2023-02-24T17:07:24;24.33;;;4.60;;
57025;SDS011;43961;52.940;6.834;2023-02-24T17:09:50;21.17;;;5.18;;
57025;SDS011;43961;52.940;6.834;2023-02-24T17:12:16;21.17;;;4.60;;
57025;SDS011;43961;52.940;6.834;2023-02-24T17:14:44;19.58;;;5.70;;
57025;SDS011;43961;52.940;6.834;2023-02-24T17:17:10;16.55;;;5.57;;
57025;SDS011;43961;52.940;6.834;2023-02-24T17:19:35;21.98;;;6.05;;
57025;SDS011;43961;52.940;6.834;2023-02-24T17:22:02;21.90;;;5.68;;
57025;SDS011;43961;52.940;6.834;2023-02-24T17:24:28;15.10;;;4.38;;
57025;SDS011;43961;52.940;6.834;2023-02-24T17:26:54;23.90;;;5.97;;
57025;SDS011;43961;52.940;6.834;2023-02-24T17:29:23;17.77;;;6.70;;
57025;SDS011;43961;52.940;6.834;2023-02-24T17:31:49;29.20;;;6.63;;
57025;SDS011;43961;52.940;6.834;2023-02-24T17:34:15;19.35;;;6.07;;
57025;SDS011;43961;52.940;6.834;2023-02-24T17:36:40;31.95;;;7.63;;
57025;SDS011;43961;52.940;6.834;2023-02-24T17:39:06;20.17;;;5.70;;
57025;SDS011;43961;52.940;6.834;2023-02-24T17:41:32;29.73;;;7.68;;
57025;SDS011;43961;52.940;6.834;2023-02-24T17:43:57;39.25;;;7.03;;
57025;SDS011;43961;52.940;6.834;2023-02-24T17:46:23;43.97;;;7.72;;
57025;SDS011;43961;52.940;6.834;2023-02-24T17:48:49;26.73;;;7.88;;
57025;SDS011;43961;52.940;6.834;2023-02-24T17:51:15;31.98;;;7.55;;
57025;SDS011;43961;52.940;6.834;2023-02-24T17:53:42;27.83;;;6.72;;
57025;SDS011;43961;52.940;6.834;2023-02-24T17:56:08;13.38;;;5.32;;
57025;SDS011;43961;52.940;6.834;2023-02-24T17:58:34;15.80;;;5.60;;
57025;SDS011;43961;52.940;6.834;2023-02-24T18:01:01;22.85;;;7.35;;
57025;SDS011;43961;52.940;6.834;2023-02-24T18:03:28;24.33;;;6.72;;
57025;SDS011;43961;52.940;6.834;2023-02-24T18:06:00;16.65;;;5.75;;
57025;SDS011;43961;52.940;6.834;2023-02-24T18:08:28;21.83;;;6.38;;
57025;SDS011;43961;52.940;6.834;2023-02-24T18:10:54;26.23;;;6.78;;
57025;SDS011;43961;52.940;6.834;2023-02-24T18:13:21;22.77;;;6.32;;
57025;SDS011;43961;52.940;6.834;2023-02-24T18:15:47;25.27;;;6.85;;
57025;SDS011;43961;52.940;6.834;2023-02-24T18:18:12;17.27;;;5.80;;
57025;SDS011;43961;52.940;6.834;2023-02-24T18:20:41;21.85;;;7.07;;
57025;SDS011;43961;52.940;6.834;2023-02-24T18:23:09;26.13;;;6.50;;
57025;SDS011;43961;52.940;6.834;2023-02-24T18:25:36;30.23;;;6.40;;
57025;SDS011;43961;52.940;6.834;2023-02-24T18:28:02;23.70;;;6.32;;
57025;SDS011;43961;52.940;6.834;2023-02-24T18:30:27;33.88;;;7.68;;
57025;SDS011;43961;52.940;6.834;2023-02-24T18:32:53;29.05;;;7.35;;
57025;SDS011;43961;52.940;6.834;2023-02-24T18:35:20;27.15;;;6.40;;
57025;SDS011;43961;52.940;6.834;2023-02-24T18:37:49;28.13;;;7.30;;
57025;SDS011;43961;52.940;6.834;2023-02-24T18:40:26;17.60;;;6.30;;
57025;SDS011;43961;52.940;6.834;2023-02-24T18:42:53;26.50;;;6.57;;
57025;SDS011;43961;52.940;6.834;2023-02-24T18:45:19;31.83;;;7.00;;
57025;SDS011;43961;52.940;6.834;2023-02-24T18:47:45;20.77;;;5.75;;
57025;SDS011;43961;52.940;6.834;2023-02-24T18:50:13;23.75;;;5.85;;
57025;SDS011;43961;52.940;6.834;2023-02-24T18:52:40;29.23;;;7.03;;
57025;SDS011;43961;52.940;6.834;2023-02-24T18:55:06;16.40;;;6.68;;
57025;SDS011;43961;52.940;6.834;2023-02-24T18:57:34;27.02;;;6.45;;
57025;SDS011;43961;52.940;6.834;2023-02-24T19:00:01;35.65;;;6.85;;
57025;SDS011;43961;52.940;6.834;2023-02-24T19:02:28;25.23;;;6.55;;
57025;SDS011;43961;52.940;6.834;2023-02-24T19:04:54;38.80;;;7.60;;
57025;SDS011;43961;52.940;6.834;2023-02-24T19:07:19;26.27;;;5.88;;
57025;SDS011;43961;52.940;6.834;2023-02-24T19:09:46;29.95;;;7.30;;
57025;SDS011;43961;52.940;6.834;2023-02-24T19:12:12;33.03;;;7.90;;
57025;SDS011;43961;52.940;6.834;2023-02-24T19:14:39;30.50;;;7.25;;
57025;SDS011;43961;52.940;6.834;2023-02-24T19:17:04;23.55;;;6.72;;
57025;SDS011;43961;52.940;6.834;2023-02-24T19:19:30;23.13;;;5.80;;
57025;SDS011;43961;52.940;6.834;2023-02-24T19:21:56;23.10;;;5.95;;
57025;SDS011;43961;52.940;6.834;2023-02-24T19:24:22;28.02;;;5.78;;
57025;SDS011;43961;52.940;6.834;2023-02-24T19:26:47;17.08;;;5.90;;
57025;SDS011;43961;52.940;6.834;2023-02-24T19:29:18;25.25;;;5.80;;
57025;SDS011;43961;52.940;6.834;2023-02-24T19:31:45;22.27;;;6.95;;
57025;SDS011;43961;52.940;6.834;2023-02-24T19:34:12;26.25;;;6.25;;
57025;SDS011;43961;52.940;6.834;2023-02-24T19:36:39;27.20;;;6.40;;
57025;SDS011;43961;52.940;6.834;2023-02-24T19:39:08;25.50;;;6.13;;
57025;SDS011;43961;52.940;6.834;2023-02-24T19:41:36;21.27;;;7.72;;
57025;SDS011;43961;52.940;6.834;2023-02-24T19:44:02;30.35;;;7.47;;
57025;SDS011;43961;52.940;6.834;2023-02-24T19:46:28;34.50;;;7.22;;
57025;SDS011;43961;52.940;6.834;2023-02-24T19:48:58;24.42;;;6.45;;
57025;SDS011;43961;52.940;6.834;2023-02-24T19:51:24;12.32;;;5.53;;
57025;SDS011;43961;52.940;6.834;2023-02-24T19:53:51;17.23;;;6.15;;
57025;SDS011;43961;52.940;6.834;2023-02-24T19:56:20;21.50;;;5.97;;
57025;SDS011;43961;52.940;6.834;2023-02-24T19:58:50;31.55;;;5.90;;
57025;SDS011;43961;52.940;6.834;2023-02-24T20:01:18;21.65;;;4.55;;
57025;SDS011;43961;52.940;6.834;2023-02-24T20:03:44;15.45;;;4.95;;
57025;SDS011;43961;52.940;6.834;2023-02-24T20:06:17;16.33;;;5.20;;
57025;SDS011;43961;52.940;6.834;2023-02-24T20:09:04;21.00;;;5.97;;
57025;SDS011;43961;52.940;6.834;2023-02-24T20:11:33;21.77;;;5.63;;
57025;SDS011;43961;52.940;6.834;2023-02-24T20:14:00;20.10;;;6.10;;
57025;SDS011;43961;52.940;6.834;2023-02-24T20:16:25;28.48;;;7.38;;
57025;SDS011;43961;52.940;6.834;2023-02-24T20:18:56;16.95;;;5.25;;
57025;SDS011;43961;52.940;6.834;2023-02-24T20:21:22;20.40;;;6.60;;
57025;SDS011;43961;52.940;6.834;2023-02-24T20:23:49;23.23;;;7.70;;
57025;SDS011;43961;52.940;6.834;2023-02-24T20:26:15;19.90;;;4.85;;
57025;SDS011;43961;52.940;6.834;2023-02-24T20:28:42;23.08;;;6.03;;
57025;SDS011;43961;52.940;6.834;2023-02-24T20:31:09;29.98;;;6.90;;
57025;SDS011;43961;52.940;6.834;2023-02-24T20:33:40;18.00;;;6.32;;
57025;SDS011;43961;52.940;6.834;2023-02-24T20:36:11;18.17;;;6.55;;
57025;SDS011;43961;52.940;6.834;2023-02-24T20:38:40;21.55;;;6.35;;
57025;SDS011;43961;52.940;6.834;2023-02-24T20:41:06;43.40;;;6.35;;
57025;SDS011;43961;52.940;6.834;2023-02-24T20:43:32;16.40;;;6.22;;
57025;SDS011;43961;52.940;6.834;2023-02-24T20:45:58;28.80;;;6.43;;
57025;SDS011;43961;52.940;6.834;2023-02-24T20:48:24;24.45;;;6.70;;
57025;SDS011;43961;52.940;6.834;2023-02-24T20:50:50;28.00;;;6.57;;
57025;SDS011;43961;52.940;6.834;2023-02-24T20:53:15;15.50;;;5.78;;
57025;SDS011;43961;52.940;6.834;2023-02-24T20:55:41;20.15;;;5.72;;
57025;SDS011;43961;52.940;6.834;2023-02-24T20:58:07;26.27;;;6.35;;
57025;SDS011;43961;52.940;6.834;2023-02-24T21:00:33;21.13;;;5.75;;
57025;SDS011;43961;52.940;6.834;2023-02-24T21:02:59;36.80;;;6.38;;
57025;SDS011;43961;52.940;6.834;2023-02-24T21:05:25;22.70;;;6.15;;
57025;SDS011;43961;52.940;6.834;2023-02-24T21:07:51;24.65;;;6.50;;
57025;SDS011;43961;52.940;6.834;2023-02-24T21:10:18;18.90;;;5.97;;
57025;SDS011;43961;52.940;6.834;2023-02-24T21:15:14;29.98;;;7.05;;
57025;SDS011;43961;52.940;6.834;2023-02-24T21:17:40;27.77;;;7.18;;
57025;SDS011;43961;52.940;6.834;2023-02-24T21:20:07;26.15;;;5.35;;
57025;SDS011;43961;52.940;6.834;2023-02-24T21:22:39;19.02;;;5.20;;
57025;SDS011;43961;52.940;6.834;2023-02-24T21:25:06;16.13;;;5.53;;
57025;SDS011;43961;52.940;6.834;2023-02-24T21:27:36;27.98;;;6.50;;
57025;SDS011;43961;52.940;6.834;2023-02-24T21:30:03;23.43;;;5.77;;
57025;SDS011;43961;52.940;6.834;2023-02-24T21:32:30;19.02;;;5.03;;
57025;SDS011;43961;52.940;6.834;2023-02-24T21:34:55;22.80;;;5.10;;
57025;SDS011;43961;52.940;6.834;2023-02-24T21:37:21;12.93;;;4.82;;
57025;SDS011;43961;52.940;6.834;2023-02-24T21:39:47;17.70;;;4.75;;
57025;SDS011;43961;52.940;6.834;2023-02-24T21:42:13;27.70;;;6.95;;
57025;SDS011;43961;52.940;6.834;2023-02-24T21:44:38;19.67;;;5.05;;
57025;SDS011;43961;52.940;6.834;2023-02-24T21:47:05;22.33;;;6.03;;
57025;SDS011;43961;52.940;6.834;2023-02-24T21:49:32;17.48;;;5.47;;
57025;SDS011;43961;52.940;6.834;2023-02-24T21:51:58;22.58;;;5.78;;
57025;SDS011;43961;52.940;6.834;2023-02-24T21:54:23;28.90;;;6.38;;
57025;SDS011;43961;52.940;6.834;2023-02-24T21:56:51;16.95;;;5.28;;
57025;SDS011;43961;52.940;6.834;2023-02-24T21:59:17;17.60;;;5.65;;
57025;SDS011;43961;52.940;6.834;2023-02-24T22:01:43;23.80;;;6.00;;
57025;SDS011;43961;52.940;6.834;2023-02-24T22:04:11;23.65;;;5.97;;
57025;SDS011;43961;52.940;6.834;2023-02-24T22:06:38;29.23;;;6.40;;
57025;SDS011;43961;52.940;6.834;2023-02-24T22:09:06;25.67;;;6.03;;
57025;SDS011;43961;52.940;6.834;2023-02-24T22:11:34;27.85;;;4.97;;
57025;SDS011;43961;52.940;6.834;2023-02-24T22:14:02;15.13;;;4.93;;
57025;SDS011;43961;52.940;6.834;2023-02-24T22:18:56;15.13;;;4.80;;
57025;SDS011;43961;52.940;6.834;2023-02-24T22:21:23;20.35;;;4.70;;
57025;SDS011;43961;52.940;6.834;2023-02-24T22:23:52;17.40;;;5.88;;
57025;SDS011;43961;52.940;6.834;2023-02-24T22:26:20;25.33;;;4.32;;
57025;SDS011;43961;52.940;6.834;2023-02-24T22:28:50;19.48;;;4.80;;
57025;SDS011;43961;52.940;6.834;2023-02-24T22:31:17;16.70;;;4.10;;
57025;SDS011;43961;52.940;6.834;2023-02-24T22:33:46;27.02;;;5.75;;
57025;SDS011;43961;52.940;6.834;2023-02-24T22:36:23;18.88;;;6.43;;
57025;SDS011;43961;52.940;6.834;2023-02-24T22:38:53;21.45;;;6.03;;
57025;SDS011;43961;52.940;6.834;2023-02-24T22:41:22;18.65;;;5.40;;
57025;SDS011;43961;52.940;6.834;2023-02-24T22:43:50;30.20;;;6.38;;
57025;SDS011;43961;52.940;6.834;2023-02-24T22:46:19;21.27;;;5.15;;
57025;SDS011;43961;52.940;6.834;2023-02-24T22:48:47;25.50;;;5.28;;
57025;SDS011;43961;52.940;6.834;2023-02-24T22:51:14;21.65;;;6.30;;
57025;SDS011;43961;52.940;6.834;2023-02-24T22:53:41;23.05;;;5.43;;
57025;SDS011;43961;52.940;6.834;2023-02-24T22:56:12;21.33;;;5.45;;
57025;SDS011;43961;52.940;6.834;2023-02-24T22:58:40;25.73;;;6.25;;
57025;SDS011;43961;52.940;6.834;2023-02-24T23:01:08;19.65;;;6.10;;
57025;SDS011;43961;52.940;6.834;2023-02-24T23:03:39;27.33;;;5.95;;
57025;SDS011;43961;52.940;6.834;2023-02-24T23:06:09;23.20;;;5.63;;
57025;SDS011;43961;52.940;6.834;2023-02-24T23:08:40;29.23;;;6.07;;
57025;SDS011;43961;52.940;6.834;2023-02-24T23:11:10;19.95;;;6.15;;
57025;SDS011;43961;52.940;6.834;2023-02-24T23:13:39;30.65;;;7.30;;
57025;SDS011;43961;52.940;6.834;2023-02-24T23:16:07;26.05;;;6.03;;
57025;SDS011;43961;52.940;6.834;2023-02-24T23:18:35;24.35;;;5.53;;
57025;SDS011;43961;52.940;6.834;2023-02-24T23:21:03;23.98;;;5.80;;
57025;SDS011;43961;52.940;6.834;2023-02-24T23:23:30;26.52;;;6.13;;
57025;SDS011;43961;52.940;6.834;2023-02-24T23:25:56;17.20;;;5.78;;
57025;SDS011;43961;52.940;6.834;2023-02-24T23:28:23;18.70;;;5.32;;
57025;SDS011;43961;52.940;6.834;2023-02-24T23:30:51;22.70;;;6.60;;
57025;SDS011;43961;52.940;6.834;2023-02-24T23:33:18;22.13;;;6.05;;
57025;SDS011;43961;52.940;6.834;2023-02-24T23:35:45;18.77;;;5.90;;
57025;SDS011;43961;52.940;6.834;2023-02-24T23:38:10;26.90;;;5.80;;
57025;SDS011;43961;52.940;6.834;2023-02-24T23:40:38;19.30;;;6.10;;
57025;SDS011;43961;52.940;6.834;2023-02-24T23:43:08;29.77;;;6.93;;
57025;SDS011;43961;52.940;6.834;2023-02-24T23:45:38;25.58;;;6.15;;
57025;SDS011;43961;52.940;6.834;2023-02-24T23:48:06;18.75;;;5.25;;
57025;SDS011;43961;52.940;6.834;2023-02-24T23:50:35;16.88;;;5.63;;
57025;SDS011;43961;52.940;6.834;2023-02-24T23:53:01;22.13;;;5.85;;
57025;SDS011;43961;52.940;6.834;2023-02-24T23:55:28;24.85;;;6.90;;
57025;SDS011;43961;52.940;6.834;2023-02-24T23:58:00;23.25;;;6.30;;
